sensor_id;sensor_type;location;lat;lon;timestamp;pressure;altitude;pressure_sealevel;temperature;humidity
70976;BME280;58635;51.198;6.010;2023-04-16T00:00:13;101929.69;;;12.75;58.54
70976;BME280;58635;51.198;6.010;2023-04-16T00:02:38;101932.47;;;12.73;58.72
70976;BME280;58635;51.198;6.010;2023-04-16T00:05:04;101931.03;;;12.71;58.79
70976;BME280;58635;51.198;6.010;2023-04-16T00:07:29;101928.25;;;12.72;58.68
70976;BME280;58635;51.198;6.010;2023-04-16T00:09:55;101924.66;;;12.73;58.59
70976;BME280;58635;51.198;6.010;2023-04-16T00:12:21;101926.91;;;12.76;58.63
70976;BME280;58635;51.198;6.010;2023-04-16T00:14:46;101925.47;;;12.74;58.92
70976;BME280;58635;51.198;6.010;2023-04-16T00:17:13;101928.88;;;12.74;58.79
70976;BME280;58635;51.198;6.010;2023-04-16T00:19:38;101928.88;;;12.74;58.70
70976;BME280;58635;51.198;6.010;2023-04-16T00:22:04;101925.28;;;12.75;58.94
70976;BME280;58635;51.198;6.010;2023-04-16T00:24:29;101928.69;;;12.76;58.78
70976;BME280;58635;51.198;6.010;2023-04-16T00:26:55;101925.91;;;12.77;58.68
70976;BME280;58635;51.198;6.010;2023-04-16T00:29:21;101933.69;;;12.77;58.90
70976;BME280;58635;51.198;6.010;2023-04-16T00:31:46;101927.88;;;12.75;58.86
70976;BME280;58635;51.198;6.010;2023-04-16T00:34:12;101925.28;;;12.75;58.80
70976;BME280;58635;51.198;6.010;2023-04-16T00:36:37;101922.06;;;12.73;58.87
70976;BME280;58635;51.198;6.010;2023-04-16T00:39:03;101925.47;;;12.74;59.04
70976;BME280;58635;51.198;6.010;2023-04-16T00:41:28;101923.88;;;12.73;59.24
70976;BME280;58635;51.198;6.010;2023-04-16T00:43:53;101929.25;;;12.71;59.17
70976;BME280;58635;51.198;6.010;2023-04-16T00:46:21;101925.84;;;12.71;59.51
70976;BME280;58635;51.198;6.010;2023-04-16T00:48:47;101923.44;;;12.69;59.35
70976;BME280;58635;51.198;6.010;2023-04-16T00:51:13;101923.63;;;12.68;59.23
70976;BME280;58635;51.198;6.010;2023-04-16T00:53:39;101924.56;;;12.67;59.28
70976;BME280;58635;51.198;6.010;2023-04-16T00:56:06;101932.53;;;12.65;59.44
70976;BME280;58635;51.198;6.010;2023-04-16T00:58:34;101930.13;;;12.64;59.51
70976;BME280;58635;51.198;6.010;2023-04-16T01:01:00;101936.47;;;12.61;59.46
70976;BME280;58635;51.198;6.010;2023-04-16T01:03:36;101926.28;;;12.59;59.62
70976;BME280;58635;51.198;6.010;2023-04-16T01:06:02;101942.03;;;12.58;59.72
70976;BME280;58635;51.198;6.010;2023-04-16T01:08:28;101938.81;;;12.56;59.79
70976;BME280;58635;51.198;6.010;2023-04-16T01:10:53;101935.56;;;12.54;59.83
70976;BME280;58635;51.198;6.010;2023-04-16T01:13:19;101937.53;;;12.52;59.70
70976;BME280;58635;51.198;6.010;2023-04-16T01:15:44;101932.97;;;12.54;60.09
70976;BME280;58635;51.198;6.010;2023-04-16T01:18:17;101933.16;;;12.52;60.33
70976;BME280;58635;51.198;6.010;2023-04-16T01:20:43;101932.34;;;12.52;60.21
70976;BME280;58635;51.198;6.010;2023-04-16T01:23:08;101932.34;;;12.52;60.27
70976;BME280;58635;51.198;6.010;2023-04-16T01:25:34;101931.56;;;12.51;60.03
70976;BME280;58635;51.198;6.010;2023-04-16T01:27:59;101927.97;;;12.52;60.20
70976;BME280;58635;51.198;6.010;2023-04-16T01:30:25;101931.72;;;12.50;60.42
70976;BME280;58635;51.198;6.010;2023-04-16T01:32:50;101921.53;;;12.48;60.58
70976;BME280;58635;51.198;6.010;2023-04-16T01:35:16;101931.28;;;12.46;60.47
70976;BME280;58635;51.198;6.010;2023-04-16T01:37:43;101922.88;;;12.44;60.76
70976;BME280;58635;51.198;6.010;2023-04-16T01:40:08;101924.03;;;12.42;60.64
70976;BME280;58635;51.198;6.010;2023-04-16T01:42:34;101926.63;;;12.42;61.05
70976;BME280;58635;51.198;6.010;2023-04-16T01:44:59;101931.97;;;12.40;60.88
70976;BME280;58635;51.198;6.010;2023-04-16T01:47:25;101926.78;;;12.40;61.14
70976;BME280;58635;51.198;6.010;2023-04-16T01:49:50;101930.38;;;12.39;61.17
70976;BME280;58635;51.198;6.010;2023-04-16T01:52:16;101937.16;;;12.40;60.94
70976;BME280;58635;51.198;6.010;2023-04-16T01:54:41;101922.22;;;12.42;60.93
70976;BME280;58635;51.198;6.010;2023-04-16T01:57:07;101930.00;;;12.42;61.08
70976;BME280;58635;51.198;6.010;2023-04-16T01:59:32;101924.50;;;12.45;60.86
70976;BME280;58635;51.198;6.010;2023-04-16T02:02:08;101930.47;;;12.46;60.93
70976;BME280;58635;51.198;6.010;2023-04-16T02:04:39;101934.88;;;12.45;61.00
70976;BME280;58635;51.198;6.010;2023-04-16T02:07:05;101925.63;;;12.43;61.08
70976;BME280;58635;51.198;6.010;2023-04-16T02:09:33;101932.59;;;12.42;61.18
70976;BME280;58635;51.198;6.010;2023-04-16T02:11:59;101928.22;;;12.43;61.21
70976;BME280;58635;51.198;6.010;2023-04-16T02:14:26;101925.47;;;12.44;61.26
70976;BME280;58635;51.198;6.010;2023-04-16T02:16:52;101925.63;;;12.43;61.47
70976;BME280;58635;51.198;6.010;2023-04-16T02:19:17;101926.28;;;12.45;61.40
70976;BME280;58635;51.198;6.010;2023-04-16T02:21:43;101920.28;;;12.44;61.38
70976;BME280;58635;51.198;6.010;2023-04-16T02:24:08;101925.28;;;12.46;61.40
70976;BME280;58635;51.198;6.010;2023-04-16T02:26:34;101934.88;;;12.45;61.41
70976;BME280;58635;51.198;6.010;2023-04-16T02:28:59;101925.28;;;12.46;61.41
70976;BME280;58635;51.198;6.010;2023-04-16T02:31:25;101938.28;;;12.46;61.38
70976;BME280;58635;51.198;6.010;2023-04-16T02:33:52;101930.66;;;12.44;61.46
70976;BME280;58635;51.198;6.010;2023-04-16T02:36:18;101934.25;;;12.43;61.46
70976;BME280;58635;51.198;6.010;2023-04-16T02:38:43;101936.84;;;12.43;61.46
70976;BME280;58635;51.198;6.010;2023-04-16T02:41:12;101935.84;;;12.44;61.42
70976;BME280;58635;51.198;6.010;2023-04-16T02:43:37;101928.69;;;12.46;61.63
70976;BME280;58635;51.198;6.010;2023-04-16T02:46:02;101932.91;;;12.47;61.40
70976;BME280;58635;51.198;6.010;2023-04-16T02:48:28;101929.50;;;12.47;61.60
70976;BME280;58635;51.198;6.010;2023-04-16T02:50:53;101933.69;;;12.48;61.57
70976;BME280;58635;51.198;6.010;2023-04-16T02:53:19;101938.88;;;12.48;61.67
70976;BME280;58635;51.198;6.010;2023-04-16T02:55:52;101937.09;;;12.48;61.79
70976;BME280;58635;51.198;6.010;2023-04-16T02:58:22;101942.47;;;12.47;61.97
70976;BME280;58635;51.198;6.010;2023-04-16T03:00:49;101952.03;;;12.46;61.94
70976;BME280;58635;51.198;6.010;2023-04-16T03:03:14;101946.84;;;12.46;62.03
70976;BME280;58635;51.198;6.010;2023-04-16T03:05:40;101947.84;;;12.45;62.06
70976;BME280;58635;51.198;6.010;2023-04-16T03:08:06;101954.63;;;12.46;62.14
70976;BME280;58635;51.198;6.010;2023-04-16T03:10:31;101950.25;;;12.47;62.19
70976;BME280;58635;51.198;6.010;2023-04-16T03:12:57;101947.03;;;12.45;62.13
70976;BME280;58635;51.198;6.010;2023-04-16T03:15:23;101950.63;;;12.44;62.27
70976;BME280;58635;51.198;6.010;2023-04-16T03:17:49;101943.97;;;12.41;62.19
70976;BME280;58635;51.198;6.010;2023-04-16T03:20:15;101948.19;;;12.42;62.52
70976;BME280;58635;51.198;6.010;2023-04-16T03:22:41;101942.38;;;12.40;62.49
70976;BME280;58635;51.198;6.010;2023-04-16T03:25:07;101946.56;;;12.41;62.66
70976;BME280;58635;51.198;6.010;2023-04-16T03:27:33;101946.94;;;12.38;62.70
70976;BME280;58635;51.198;6.010;2023-04-16T03:29:58;101946.13;;;12.38;62.86
70976;BME280;58635;51.198;6.010;2023-04-16T03:32:24;101947.09;;;12.37;62.92
70976;BME280;58635;51.198;6.010;2023-04-16T03:34:49;101953.09;;;12.37;63.27
70976;BME280;58635;51.198;6.010;2023-04-16T03:37:15;101954.09;;;12.36;63.23
70976;BME280;58635;51.198;6.010;2023-04-16T03:39:41;101952.28;;;12.37;63.15
70976;BME280;58635;51.198;6.010;2023-04-16T03:42:06;101948.91;;;12.36;63.12
70976;BME280;58635;51.198;6.010;2023-04-16T03:44:31;101948.09;;;12.36;63.47
70976;BME280;58635;51.198;6.010;2023-04-16T03:46:57;101949.69;;;12.37;63.34
70976;BME280;58635;51.198;6.010;2023-04-16T03:49:22;101947.09;;;12.37;63.29
70976;BME280;58635;51.198;6.010;2023-04-16T03:51:48;101953.91;;;12.38;63.25
70976;BME280;58635;51.198;6.010;2023-04-16T03:54:13;101954.09;;;12.36;63.54
70976;BME280;58635;51.198;6.010;2023-04-16T03:56:39;101954.09;;;12.36;63.59
70976;BME280;58635;51.198;6.010;2023-04-16T03:59:05;101951.50;;;12.36;63.57
70976;BME280;58635;51.198;6.010;2023-04-16T04:01:30;101954.72;;;12.38;63.65
70976;BME280;58635;51.198;6.010;2023-04-16T04:03:55;101954.88;;;12.37;63.63
70976;BME280;58635;51.198;6.010;2023-04-16T04:06:21;101953.28;;;12.36;63.43
70976;BME280;58635;51.198;6.010;2023-04-16T04:08:46;101959.91;;;12.38;63.87
70976;BME280;58635;51.198;6.010;2023-04-16T04:11:12;101953.91;;;12.38;64.01
70976;BME280;58635;51.198;6.010;2023-04-16T04:13:37;101953.09;;;12.37;64.05
70976;BME280;58635;51.198;6.010;2023-04-16T04:16:03;101959.28;;;12.36;64.13
70976;BME280;58635;51.198;6.010;2023-04-16T04:18:29;101955.88;;;12.36;64.28
70976;BME280;58635;51.198;6.010;2023-04-16T04:20:54;101962.66;;;12.37;63.98
70976;BME280;58635;51.198;6.010;2023-04-16T04:23:20;101964.28;;;12.38;64.19
70976;BME280;58635;51.198;6.010;2023-04-16T04:25:45;101956.69;;;12.36;64.36
70976;BME280;58635;51.198;6.010;2023-04-16T04:28:11;101963.47;;;12.37;64.36
70976;BME280;58635;51.198;6.010;2023-04-16T04:30:36;101967.69;;;12.38;64.41
70976;BME280;58635;51.198;6.010;2023-04-16T04:33:01;101962.50;;;12.38;64.62
70976;BME280;58635;51.198;6.010;2023-04-16T04:35:27;101966.69;;;12.39;64.63
70976;BME280;58635;51.198;6.010;2023-04-16T04:37:52;101962.31;;;12.40;64.74
70976;BME280;58635;51.198;6.010;2023-04-16T04:40:17;101966.50;;;12.41;64.54
70976;BME280;58635;51.198;6.010;2023-04-16T04:42:43;101966.88;;;12.38;64.73
70976;BME280;58635;51.198;6.010;2023-04-16T04:45:09;101967.69;;;12.38;64.85
70976;BME280;58635;51.198;6.010;2023-04-16T04:47:35;101972.88;;;12.38;64.77
70976;BME280;58635;51.198;6.010;2023-04-16T04:50:00;101976.44;;;12.37;64.90
70976;BME280;58635;51.198;6.010;2023-04-16T04:52:25;101974.84;;;12.36;64.97
70976;BME280;58635;51.198;6.010;2023-04-16T04:54:51;101972.44;;;12.35;65.25
70976;BME280;58635;51.198;6.010;2023-04-16T04:57:16;101975.81;;;12.35;65.15
70976;BME280;58635;51.198;6.010;2023-04-16T04:59:42;101973.22;;;12.35;65.22
70976;BME280;58635;51.198;6.010;2023-04-16T05:02:07;101981.00;;;12.35;65.15
70976;BME280;58635;51.198;6.010;2023-04-16T05:04:32;101988.00;;;12.35;65.15
70976;BME280;58635;51.198;6.010;2023-04-16T05:06:58;101984.41;;;12.36;65.38
70976;BME280;58635;51.198;6.010;2023-04-16T05:09:23;101989.41;;;12.37;65.32
70976;BME280;58635;51.198;6.010;2023-04-16T05:11:49;101988.63;;;12.37;65.32
70976;BME280;58635;51.198;6.010;2023-04-16T05:14:15;101991.22;;;12.37;65.26
70976;BME280;58635;51.198;6.010;2023-04-16T05:16:40;101997.38;;;12.36;65.32
70976;BME280;58635;51.198;6.010;2023-04-16T05:19:06;101993.19;;;12.35;65.45
70976;BME280;58635;51.198;6.010;2023-04-16T05:21:31;101985.75;;;12.32;65.80
70976;BME280;58635;51.198;6.010;2023-04-16T05:23:57;101995.94;;;12.33;65.76
70976;BME280;58635;51.198;6.010;2023-04-16T05:26:23;101992.38;;;12.34;65.71
70976;BME280;58635;51.198;6.010;2023-04-16T05:28:48;101997.22;;;12.37;65.79
70976;BME280;58635;51.198;6.010;2023-04-16T05:31:13;102001.41;;;12.38;65.87
70976;BME280;58635;51.198;6.010;2023-04-16T05:33:39;102002.22;;;12.39;65.56
70976;BME280;58635;51.198;6.010;2023-04-16T05:36:05;102007.03;;;12.42;65.43
70976;BME280;58635;51.198;6.010;2023-04-16T05:38:30;102012.91;;;12.44;65.42
70976;BME280;58635;51.198;6.010;2023-04-16T05:40:57;102014.50;;;12.45;65.78
70976;BME280;58635;51.198;6.010;2023-04-16T05:43:22;102011.91;;;12.45;65.57
70976;BME280;58635;51.198;6.010;2023-04-16T05:45:48;102015.13;;;12.47;65.84
70976;BME280;58635;51.198;6.010;2023-04-16T05:48:13;102014.16;;;12.48;65.83
70976;BME280;58635;51.198;6.010;2023-04-16T05:50:39;102017.53;;;12.48;65.71
70976;BME280;58635;51.198;6.010;2023-04-16T05:53:06;102016.75;;;12.48;65.75
70976;BME280;58635;51.198;6.010;2023-04-16T05:55:32;102016.56;;;12.49;65.68
70976;BME280;58635;51.198;6.010;2023-04-16T05:57:57;102021.38;;;12.52;65.61
70976;BME280;58635;51.198;6.010;2023-04-16T06:00:23;102028.84;;;12.55;65.59
70976;BME280;58635;51.198;6.010;2023-04-16T06:02:49;102029.00;;;12.54;65.64
70976;BME280;58635;51.198;6.010;2023-04-16T06:05:15;102029.00;;;12.54;65.72
70976;BME280;58635;51.198;6.010;2023-04-16T06:07:40;102033.38;;;12.53;65.77
70976;BME280;58635;51.198;6.010;2023-04-16T06:10:06;102027.22;;;12.54;65.68
70976;BME280;58635;51.198;6.010;2023-04-16T06:12:32;102033.06;;;12.56;65.66
70976;BME280;58635;51.198;6.010;2023-04-16T06:14:57;102030.28;;;12.58;65.65
70976;BME280;58635;51.198;6.010;2023-04-16T06:17:23;102030.47;;;12.56;65.34
70976;BME280;58635;51.198;6.010;2023-04-16T06:19:48;102038.25;;;12.56;65.59
70976;BME280;58635;51.198;6.010;2023-04-16T06:22:13;102047.63;;;12.57;65.61
70976;BME280;58635;51.198;6.010;2023-04-16T06:24:39;102039.06;;;12.57;65.66
70976;BME280;58635;51.198;6.010;2023-04-16T06:27:04;102038.06;;;12.58;65.53
70976;BME280;58635;51.198;6.010;2023-04-16T06:29:30;102044.06;;;12.58;65.60
70976;BME280;58635;51.198;6.010;2023-04-16T06:31:55;102044.69;;;12.61;65.69
70976;BME280;58635;51.198;6.010;2023-04-16T06:34:21;102047.28;;;12.61;65.77
70976;BME280;58635;51.198;6.010;2023-04-16T06:36:46;102048.91;;;12.62;65.71
70976;BME280;58635;51.198;6.010;2023-04-16T06:39:11;102050.31;;;12.64;65.60
70976;BME280;58635;51.198;6.010;2023-04-16T06:41:37;102051.13;;;12.65;65.63
70976;BME280;58635;51.198;6.010;2023-04-16T06:44:02;102057.94;;;12.66;65.65
70976;BME280;58635;51.198;6.010;2023-04-16T06:46:28;102061.19;;;12.68;65.49
70976;BME280;58635;51.198;6.010;2023-04-16T06:48:53;102059.41;;;12.68;65.52
70976;BME280;58635;51.198;6.010;2023-04-16T06:51:18;102053.41;;;12.68;65.57
70976;BME280;58635;51.198;6.010;2023-04-16T06:53:44;102060.81;;;12.71;65.66
70976;BME280;58635;51.198;6.010;2023-04-16T06:56:10;102062.44;;;12.72;65.68
70976;BME280;58635;51.198;6.010;2023-04-16T06:58:36;102063.44;;;12.71;65.62
70976;BME280;58635;51.198;6.010;2023-04-16T07:01:01;102069.25;;;12.73;65.63
70976;BME280;58635;51.198;6.010;2023-04-16T07:03:27;102071.66;;;12.74;65.72
70976;BME280;58635;51.198;6.010;2023-04-16T07:05:52;102079.09;;;12.77;65.60
70976;BME280;58635;51.198;6.010;2023-04-16T07:08:18;102072.56;;;12.81;65.56
70976;BME280;58635;51.198;6.010;2023-04-16T07:10:43;102072.56;;;12.81;65.66
70976;BME280;58635;51.198;6.010;2023-04-16T07:13:09;102077.78;;;12.81;65.74
70976;BME280;58635;51.198;6.010;2023-04-16T07:15:35;102081.19;;;12.82;65.78
70976;BME280;58635;51.198;6.010;2023-04-16T07:18:00;102081.81;;;12.84;65.79
70976;BME280;58635;51.198;6.010;2023-04-16T07:20:25;102079.66;;;12.87;65.66
70976;BME280;58635;51.198;6.010;2023-04-16T07:22:51;102084.66;;;12.89;65.63
70976;BME280;58635;51.198;6.010;2023-04-16T07:25:16;102089.53;;;12.92;65.67
70976;BME280;58635;51.198;6.010;2023-04-16T07:27:42;102083.16;;;12.95;65.70
70976;BME280;58635;51.198;6.010;2023-04-16T07:30:07;102093.38;;;12.96;65.73
70976;BME280;58635;51.198;6.010;2023-04-16T07:32:33;102100.81;;;12.99;65.49
70976;BME280;58635;51.198;6.010;2023-04-16T07:34:59;102105.47;;;13.04;65.48
70976;BME280;58635;51.198;6.010;2023-04-16T07:37:25;102096.88;;;13.03;65.42
70976;BME280;58635;51.198;6.010;2023-04-16T07:39:50;102102.88;;;13.04;65.69
70976;BME280;58635;51.198;6.010;2023-04-16T07:42:16;102107.72;;;13.07;65.38
70976;BME280;58635;51.198;6.010;2023-04-16T07:44:42;102107.72;;;13.07;65.32
70976;BME280;58635;51.198;6.010;2023-04-16T07:47:07;102113.72;;;13.07;65.64
70976;BME280;58635;51.198;6.010;2023-04-16T07:49:33;102112.09;;;13.06;65.64
70976;BME280;58635;51.198;6.010;2023-04-16T07:51:58;102122.13;;;13.09;65.38
70976;BME280;58635;51.198;6.010;2023-04-16T07:54:23;102119.34;;;13.11;65.56
70976;BME280;58635;51.198;6.010;2023-04-16T07:56:49;102121.59;;;13.14;65.52
70976;BME280;58635;51.198;6.010;2023-04-16T07:59:14;102125.66;;;13.16;65.21
70976;BME280;58635;51.198;6.010;2023-04-16T08:01:40;102127.25;;;13.17;65.23
70976;BME280;58635;51.198;6.010;2023-04-16T08:04:05;102129.53;;;13.21;65.39
70976;BME280;58635;51.198;6.010;2023-04-16T08:06:31;102128.38;;;13.23;65.22
70976;BME280;58635;51.198;6.010;2023-04-16T08:08:56;102128.19;;;13.25;65.26
70976;BME280;58635;51.198;6.010;2023-04-16T08:11:22;102131.88;;;13.30;65.23
70976;BME280;58635;51.198;6.010;2023-04-16T08:13:48;102140.09;;;13.34;65.01
70976;BME280;58635;51.198;6.010;2023-04-16T08:16:14;102138.59;;;13.39;65.03
70976;BME280;58635;51.198;6.010;2023-04-16T08:18:39;102135.47;;;13.44;65.07
70976;BME280;58635;51.198;6.010;2023-04-16T08:21:05;102146.31;;;13.48;64.83
70976;BME280;58635;51.198;6.010;2023-04-16T08:23:30;102148.72;;;13.49;64.90
70976;BME280;58635;51.198;6.010;2023-04-16T08:25:55;102146.13;;;13.49;64.82
70976;BME280;58635;51.198;6.010;2023-04-16T08:28:21;102146.91;;;13.50;64.88
70976;BME280;58635;51.198;6.010;2023-04-16T08:30:46;102156.38;;;13.51;64.64
70976;BME280;58635;51.198;6.010;2023-04-16T08:33:12;102157.16;;;13.51;64.65
70976;BME280;58635;51.198;6.010;2023-04-16T08:35:38;102156.97;;;13.53;64.61
70976;BME280;58635;51.198;6.010;2023-04-16T08:38:04;102155.19;;;13.53;64.68
70976;BME280;58635;51.198;6.010;2023-04-16T08:40:32;102155.81;;;13.55;64.71
70976;BME280;58635;51.198;6.010;2023-04-16T08:43:00;102157.41;;;13.56;64.73
70976;BME280;58635;51.198;6.010;2023-04-16T08:45:27;102163.25;;;13.58;64.71
70976;BME280;58635;51.198;6.010;2023-04-16T08:47:53;102164.22;;;13.57;64.34
70976;BME280;58635;51.198;6.010;2023-04-16T08:50:23;102167.47;;;13.59;64.55
70976;BME280;58635;51.198;6.010;2023-04-16T08:52:58;102159.47;;;13.61;64.52
70976;BME280;58635;51.198;6.010;2023-04-16T08:55:54;102166.47;;;13.60;64.20
70976;BME280;58635;51.198;6.010;2023-04-16T08:58:21;102167.13;;;13.62;64.25
70976;BME280;58635;51.198;6.010;2023-04-16T09:00:50;102167.56;;;13.66;64.18
70976;BME280;58635;51.198;6.010;2023-04-16T09:03:16;102179.03;;;13.71;64.07
70976;BME280;58635;51.198;6.010;2023-04-16T09:05:44;102170.94;;;13.81;64.05
70976;BME280;58635;51.198;6.010;2023-04-16T09:08:11;102181.88;;;13.91;63.80
70976;BME280;58635;51.198;6.010;2023-04-16T09:10:36;102173.00;;;14.00;63.72
70976;BME280;58635;51.198;6.010;2023-04-16T09:13:02;102174.69;;;14.08;63.57
70976;BME280;58635;51.198;6.010;2023-04-16T09:15:27;102181.97;;;14.13;63.39
70976;BME280;58635;51.198;6.010;2023-04-16T09:17:53;102176.19;;;14.17;63.18
70976;BME280;58635;51.198;6.010;2023-04-16T09:20:20;102185.09;;;14.23;63.20
70976;BME280;58635;51.198;6.010;2023-04-16T09:22:46;102181.72;;;14.29;62.99
70976;BME280;58635;51.198;6.010;2023-04-16T09:25:11;102178.03;;;14.38;62.75
70976;BME280;58635;51.198;6.010;2023-04-16T09:27:38;102183.97;;;14.47;62.55
70976;BME280;58635;51.198;6.010;2023-04-16T09:30:24;102189.03;;;14.55;62.25
70976;BME280;58635;51.198;6.010;2023-04-16T09:32:52;102188.88;;;14.56;61.99
70976;BME280;58635;51.198;6.010;2023-04-16T09:35:47;102191.47;;;14.56;61.88
70976;BME280;58635;51.198;6.010;2023-04-16T09:38:13;102194.44;;;14.53;61.81
70976;BME280;58635;51.198;6.010;2023-04-16T09:40:38;102202.44;;;14.52;61.80
70976;BME280;58635;51.198;6.010;2023-04-16T09:43:11;102199.28;;;14.56;61.72
70976;BME280;58635;51.198;6.010;2023-04-16T09:46:04;102194.13;;;14.63;61.58
70976;BME280;58635;51.198;6.010;2023-04-16T09:48:30;102205.78;;;14.67;61.27
70976;BME280;58635;51.198;6.010;2023-04-16T09:50:58;102203.38;;;14.66;61.10
70976;BME280;58635;51.198;6.010;2023-04-16T09:53:24;102198.34;;;14.64;60.97
70976;BME280;58635;51.198;6.010;2023-04-16T09:55:59;102199.78;;;14.67;60.95
70976;BME280;58635;51.198;6.010;2023-04-16T09:58:26;102194.94;;;14.63;60.81
70976;BME280;58635;51.198;6.010;2023-04-16T10:01:11;102197.00;;;14.68;60.64
70976;BME280;58635;51.198;6.010;2023-04-16T10:03:38;102202.66;;;14.72;60.47
70976;BME280;58635;51.198;6.010;2023-04-16T10:06:17;102205.28;;;14.78;60.27
70976;BME280;58635;51.198;6.010;2023-04-16T10:08:49;102206.59;;;14.89;60.26
70976;BME280;58635;51.198;6.010;2023-04-16T10:11:15;102197.34;;;15.08;59.67
70976;BME280;58635;51.198;6.010;2023-04-16T10:13:41;102206.94;;;15.29;59.24
70976;BME280;58635;51.198;6.010;2023-04-16T10:16:07;102199.22;;;15.48;58.70
70976;BME280;58635;51.198;6.010;2023-04-16T10:18:38;102206.41;;;15.68;58.32
70976;BME280;58635;51.198;6.010;2023-04-16T10:21:04;102206.47;;;15.81;57.89
70976;BME280;58635;51.198;6.010;2023-04-16T10:23:31;102206.34;;;15.96;57.62
70976;BME280;58635;51.198;6.010;2023-04-16T10:25:57;102206.78;;;16.06;57.16
70976;BME280;58635;51.198;6.010;2023-04-16T10:28:23;102195.78;;;16.17;56.83
70976;BME280;58635;51.198;6.010;2023-04-16T10:30:50;102202.47;;;16.33;56.67
70976;BME280;58635;51.198;6.010;2023-04-16T10:33:21;102204.31;;;16.52;56.12
70976;BME280;58635;51.198;6.010;2023-04-16T10:35:49;102203.81;;;16.70;55.99
70976;BME280;58635;51.198;6.010;2023-04-16T10:38:24;102199.97;;;16.92;55.85
70976;BME280;58635;51.198;6.010;2023-04-16T10:40:50;102206.41;;;17.16;55.41
70976;BME280;58635;51.198;6.010;2023-04-16T10:43:24;102210.81;;;17.36;54.54
70976;BME280;58635;51.198;6.010;2023-04-16T10:45:49;102203.97;;;17.48;54.41
70976;BME280;58635;51.198;6.010;2023-04-16T10:48:17;102205.53;;;17.62;53.68
70976;BME280;58635;51.198;6.010;2023-04-16T10:50:56;102200.72;;;17.72;53.31
70976;BME280;58635;51.198;6.010;2023-04-16T10:53:26;102197.66;;;17.82;53.00
70976;BME280;58635;51.198;6.010;2023-04-16T10:56:09;102187.94;;;17.96;52.77
70976;BME280;58635;51.198;6.010;2023-04-16T10:58:36;102195.38;;;18.05;52.52
70976;BME280;58635;51.198;6.010;2023-04-16T11:01:09;102192.31;;;18.15;52.20
70976;BME280;58635;51.198;6.010;2023-04-16T11:03:40;102195.09;;;18.20;51.74
70976;BME280;58635;51.198;6.010;2023-04-16T11:06:16;102196.09;;;18.19;51.83
70976;BME280;58635;51.198;6.010;2023-04-16T11:08:45;102198.91;;;18.24;51.70
70976;BME280;58635;51.198;6.010;2023-04-16T11:11:11;102197.91;;;18.25;51.49
70976;BME280;58635;51.198;6.010;2023-04-16T11:13:37;102195.88;;;18.27;51.12
70976;BME280;58635;51.198;6.010;2023-04-16T11:16:03;102196.25;;;18.31;51.15
70976;BME280;58635;51.198;6.010;2023-04-16T11:18:30;102187.16;;;18.33;50.95
70976;BME280;58635;51.198;6.010;2023-04-16T11:20:55;102192.59;;;18.32;50.67
70976;BME280;58635;51.198;6.010;2023-04-16T11:23:21;102181.97;;;18.27;50.48
70976;BME280;58635;51.198;6.010;2023-04-16T11:25:46;102177.53;;;18.27;50.50
70976;BME280;58635;51.198;6.010;2023-04-16T11:28:12;102181.09;;;18.39;50.26
70976;BME280;58635;51.198;6.010;2023-04-16T11:30:38;102184.22;;;18.55;49.83
70976;BME280;58635;51.198;6.010;2023-04-16T11:33:04;102177.94;;;18.56;49.38
70976;BME280;58635;51.198;6.010;2023-04-16T11:35:29;102185.06;;;18.49;49.60
70976;BME280;58635;51.198;6.010;2023-04-16T11:37:56;102185.16;;;18.35;49.69
70976;BME280;58635;51.198;6.010;2023-04-16T11:40:21;102193.47;;;18.19;49.28
70976;BME280;58635;51.198;6.010;2023-04-16T11:42:47;102185.06;;;18.10;49.69
70976;BME280;58635;51.198;6.010;2023-04-16T11:45:12;102189.31;;;18.11;49.76
70976;BME280;58635;51.198;6.010;2023-04-16T11:47:46;102188.44;;;18.24;49.67
70976;BME280;58635;51.198;6.010;2023-04-16T11:50:21;102179.50;;;18.38;49.01
70976;BME280;58635;51.198;6.010;2023-04-16T11:52:48;102192.16;;;18.41;48.81
70976;BME280;58635;51.198;6.010;2023-04-16T11:55:14;102175.97;;;18.51;48.77
70976;BME280;58635;51.198;6.010;2023-04-16T11:57:39;102181.94;;;18.65;48.72
70976;BME280;58635;51.198;6.010;2023-04-16T12:00:05;102184.31;;;18.73;47.96
70976;BME280;58635;51.198;6.010;2023-04-16T12:05:37;102187.47;;;18.50;48.19
70976;BME280;58635;51.198;6.010;2023-04-16T12:08:07;102195.63;;;18.35;48.79
70976;BME280;58635;51.198;6.010;2023-04-16T12:10:35;102198.69;;;18.26;48.96
70976;BME280;58635;51.198;6.010;2023-04-16T12:13:17;102199.94;;;18.23;48.62
70976;BME280;58635;51.198;6.010;2023-04-16T12:15:50;102196.66;;;18.28;48.33
70976;BME280;58635;51.198;6.010;2023-04-16T12:18:16;102202.72;;;18.28;48.91
70976;BME280;58635;51.198;6.010;2023-04-16T12:20:42;102206.69;;;18.37;48.76
70976;BME280;58635;51.198;6.010;2023-04-16T12:23:08;102194.75;;;18.48;47.94
70976;BME280;58635;51.198;6.010;2023-04-16T12:25:34;102204.78;;;18.51;47.85
70976;BME280;58635;51.198;6.010;2023-04-16T12:28:00;102196.94;;;18.51;47.98
70976;BME280;58635;51.198;6.010;2023-04-16T12:30:26;102206.03;;;18.49;48.34
70976;BME280;58635;51.198;6.010;2023-04-16T12:33:14;102198.97;;;18.49;48.52
70976;BME280;58635;51.198;6.010;2023-04-16T12:35:41;102196.13;;;18.51;48.54
70976;BME280;58635;51.198;6.010;2023-04-16T12:38:08;102203.56;;;18.54;47.86
70976;BME280;58635;51.198;6.010;2023-04-16T12:40:33;102200.38;;;18.45;48.23
70976;BME280;58635;51.198;6.010;2023-04-16T12:43:00;102205.28;;;18.35;48.06
70976;BME280;58635;51.198;6.010;2023-04-16T12:45:25;102209.56;;;18.23;48.79
70976;BME280;58635;51.198;6.010;2023-04-16T12:47:50;102205.81;;;18.12;49.46
70976;BME280;58635;51.198;6.010;2023-04-16T12:50:16;102208.06;;;18.02;49.97